sensor_id;sensor_type;location;lat;lon;timestamp;P1;durP1;ratioP1;P2;durP2;ratioP2
13483;SDS011;6814;57.786;12.080;2023-04-01T00:00:03;2.37;;;1.00;;
13483;SDS011;6814;57.786;12.080;2023-04-01T00:02:30;1.30;;;1.20;;
13483;SDS011;6814;57.786;12.080;2023-04-01T00:04:56;1.10;;;1.00;;
13483;SDS011;6814;57.786;12.080;2023-04-01T00:07:24;1.10;;;1.00;;
13483;SDS011;6814;57.786;12.080;2023-04-01T00:09:51;1.20;;;1.10;;
13483;SDS011;6814;57.786;12.080;2023-04-01T00:12:17;2.70;;;1.37;;
13483;SDS011;6814;57.786;12.080;2023-04-01T00:14:43;1.00;;;1.00;;
13483;SDS011;6814;57.786;12.080;2023-04-01T00:17:10;1.07;;;1.00;;
13483;SDS011;6814;57.786;12.080;2023-04-01T00:19:36;1.20;;;1.10;;
13483;SDS011;6814;57.786;12.080;2023-04-01T00:22:03;2.30;;;1.10;;
13483;SDS011;6814;57.786;12.080;2023-04-01T00:24:31;0.90;;;0.90;;
13483;SDS011;6814;57.786;12.080;2023-04-01T00:26:58;1.03;;;1.03;;
13483;SDS011;6814;57.786;12.080;2023-04-01T00:29:24;1.20;;;1.10;;
13483;SDS011;6814;57.786;12.080;2023-04-01T00:31:54;2.80;;;1.17;;
13483;SDS011;6814;57.786;12.080;2023-04-01T00:34:20;1.30;;;1.20;;
13483;SDS011;6814;57.786;12.080;2023-04-01T00:36:47;1.77;;;1.20;;
13483;SDS011;6814;57.786;12.080;2023-04-01T00:39:13;0.80;;;0.80;;
13483;SDS011;6814;57.786;12.080;2023-04-01T00:41:41;1.50;;;1.10;;
13483;SDS011;6814;57.786;12.080;2023-04-01T00:44:17;1.30;;;1.20;;
13483;SDS011;6814;57.786;12.080;2023-04-01T00:46:44;1.10;;;1.10;;
13483;SDS011;6814;57.786;12.080;2023-04-01T00:49:11;2.47;;;1.20;;
13483;SDS011;6814;57.786;12.080;2023-04-01T00:51:38;1.20;;;1.10;;
13483;SDS011;6814;57.786;12.080;2023-04-01T00:54:05;1.33;;;1.20;;
13483;SDS011;6814;57.786;12.080;2023-04-01T00:56:33;1.40;;;1.30;;
13483;SDS011;6814;57.786;12.080;2023-04-01T00:59:04;1.40;;;1.30;;
13483;SDS011;6814;57.786;12.080;2023-04-01T01:01:33;0.93;;;0.90;;
13483;SDS011;6814;57.786;12.080;2023-04-01T01:04:00;1.90;;;1.20;;
13483;SDS011;6814;57.786;12.080;2023-04-01T01:06:31;1.47;;;1.20;;
13483;SDS011;6814;57.786;12.080;2023-04-01T01:09:10;1.67;;;1.20;;
13483;SDS011;6814;57.786;12.080;2023-04-01T01:11:40;1.10;;;1.10;;
13483;SDS011;6814;57.786;12.080;2023-04-01T01:14:10;1.43;;;1.33;;
13483;SDS011;6814;57.786;12.080;2023-04-01T01:16:40;1.30;;;1.20;;
13483;SDS011;6814;57.786;12.080;2023-04-01T01:19:09;1.40;;;1.17;;
13483;SDS011;6814;57.786;12.080;2023-04-01T01:21:49;1.30;;;1.10;;
13483;SDS011;6814;57.786;12.080;2023-04-01T01:24:23;1.77;;;1.00;;
13483;SDS011;6814;57.786;12.080;2023-04-01T01:26:55;1.00;;;0.90;;
13483;SDS011;6814;57.786;12.080;2023-04-01T01:29:31;1.07;;;1.03;;
13483;SDS011;6814;57.786;12.080;2023-04-01T01:32:00;1.20;;;1.03;;
13483;SDS011;6814;57.786;12.080;2023-04-01T01:34:30;2.37;;;1.20;;
13483;SDS011;6814;57.786;12.080;2023-04-01T01:37:00;0.93;;;0.93;;
13483;SDS011;6814;57.786;12.080;2023-04-01T01:39:29;1.53;;;1.40;;
13483;SDS011;6814;57.786;12.080;2023-04-01T01:41:56;1.73;;;1.10;;
13483;SDS011;6814;57.786;12.080;2023-04-01T01:44:24;1.90;;;1.70;;
13483;SDS011;6814;57.786;12.080;2023-04-01T01:46:52;2.13;;;1.57;;
13483;SDS011;6814;57.786;12.080;2023-04-01T01:49:19;1.50;;;1.40;;
13483;SDS011;6814;57.786;12.080;2023-04-01T01:51:46;2.13;;;1.30;;
13483;SDS011;6814;57.786;12.080;2023-04-01T01:54:15;1.30;;;1.20;;
13483;SDS011;6814;57.786;12.080;2023-04-01T01:56:42;1.70;;;1.50;;
13483;SDS011;6814;57.786;12.080;2023-04-01T01:59:10;1.50;;;1.40;;
13483;SDS011;6814;57.786;12.080;2023-04-01T02:01:38;1.90;;;1.80;;
13483;SDS011;6814;57.786;12.080;2023-04-01T02:04:05;1.63;;;1.53;;
13483;SDS011;6814;57.786;12.080;2023-04-01T02:06:33;1.70;;;1.60;;
13483;SDS011;6814;57.786;12.080;2023-04-01T02:09:01;1.70;;;1.60;;
13483;SDS011;6814;57.786;12.080;2023-04-01T02:11:30;6.37;;;1.90;;
13483;SDS011;6814;57.786;12.080;2023-04-01T02:13:58;1.50;;;1.40;;
13483;SDS011;6814;57.786;12.080;2023-04-01T02:16:27;1.83;;;1.73;;
13483;SDS011;6814;57.786;12.080;2023-04-01T02:18:55;1.83;;;1.37;;
13483;SDS011;6814;57.786;12.080;2023-04-01T02:21:23;4.00;;;1.40;;
13483;SDS011;6814;57.786;12.080;2023-04-01T02:23:50;1.70;;;1.60;;
13483;SDS011;6814;57.786;12.080;2023-04-01T02:26:18;2.10;;;1.47;;
13483;SDS011;6814;57.786;12.080;2023-04-01T02:28:47;1.20;;;1.20;;
13483;SDS011;6814;57.786;12.080;2023-04-01T02:31:15;1.57;;;1.20;;
13483;SDS011;6814;57.786;12.080;2023-04-01T02:33:41;1.27;;;1.17;;
13483;SDS011;6814;57.786;12.080;2023-04-01T02:36:10;1.70;;;1.33;;
13483;SDS011;6814;57.786;12.080;2023-04-01T02:38:36;1.27;;;1.20;;
13483;SDS011;6814;57.786;12.080;2023-04-01T02:41:03;1.50;;;1.40;;
13483;SDS011;6814;57.786;12.080;2023-04-01T02:43:30;1.23;;;1.13;;
13483;SDS011;6814;57.786;12.080;2023-04-01T02:45:58;1.40;;;1.30;;
13483;SDS011;6814;57.786;12.080;2023-04-01T02:48:24;1.60;;;1.27;;
13483;SDS011;6814;57.786;12.080;2023-04-01T02:50:51;1.60;;;1.50;;
13483;SDS011;6814;57.786;12.080;2023-04-01T02:53:17;1.13;;;1.10;;
13483;SDS011;6814;57.786;12.080;2023-04-01T02:55:43;1.30;;;1.20;;
13483;SDS011;6814;57.786;12.080;2023-04-01T02:58:11;1.40;;;1.27;;
13483;SDS011;6814;57.786;12.080;2023-04-01T03:00:37;1.37;;;1.27;;
13483;SDS011;6814;57.786;12.080;2023-04-01T03:03:05;1.53;;;1.23;;
13483;SDS011;6814;57.786;12.080;2023-04-01T03:05:31;1.77;;;1.20;;
13483;SDS011;6814;57.786;12.080;2023-04-01T03:07:58;1.20;;;1.10;;
13483;SDS011;6814;57.786;12.080;2023-04-01T03:10:24;1.37;;;1.27;;
13483;SDS011;6814;57.786;12.080;2023-04-01T03:12:51;1.47;;;1.20;;
13483;SDS011;6814;57.786;12.080;2023-04-01T03:15:17;1.20;;;1.20;;
13483;SDS011;6814;57.786;12.080;2023-04-01T03:17:44;1.30;;;1.20;;
13483;SDS011;6814;57.786;12.080;2023-04-01T03:20:13;1.97;;;1.50;;
13483;SDS011;6814;57.786;12.080;2023-04-01T03:22:40;2.47;;;1.30;;
13483;SDS011;6814;57.786;12.080;2023-04-01T03:25:06;1.83;;;1.23;;
13483;SDS011;6814;57.786;12.080;2023-04-01T03:27:33;1.43;;;1.20;;
13483;SDS011;6814;57.786;12.080;2023-04-01T03:30:00;1.47;;;1.33;;
13483;SDS011;6814;57.786;12.080;2023-04-01T03:32:27;1.10;;;1.10;;
13483;SDS011;6814;57.786;12.080;2023-04-01T03:34:53;1.60;;;1.50;;
13483;SDS011;6814;57.786;12.080;2023-04-01T03:37:22;1.97;;;1.60;;
13483;SDS011;6814;57.786;12.080;2023-04-01T03:39:48;1.77;;;1.33;;
13483;SDS011;6814;57.786;12.080;2023-04-01T03:42:15;1.47;;;1.30;;
13483;SDS011;6814;57.786;12.080;2023-04-01T03:44:41;1.90;;;1.63;;
13483;SDS011;6814;57.786;12.080;2023-04-01T03:47:07;1.53;;;1.23;;
13483;SDS011;6814;57.786;12.080;2023-04-01T03:49:35;1.43;;;1.33;;
13483;SDS011;6814;57.786;12.080;2023-04-01T03:52:01;1.30;;;1.20;;
13483;SDS011;6814;57.786;12.080;2023-04-01T03:54:29;2.23;;;1.33;;
13483;SDS011;6814;57.786;12.080;2023-04-01T03:56:57;1.10;;;1.10;;
13483;SDS011;6814;57.786;12.080;2023-04-01T03:59:23;1.40;;;1.30;;
13483;SDS011;6814;57.786;12.080;2023-04-01T04:01:50;1.57;;;1.20;;
13483;SDS011;6814;57.786;12.080;2023-04-01T04:04:16;1.50;;;1.40;;
13483;SDS011;6814;57.786;12.080;2023-04-01T04:06:42;2.07;;;1.37;;
13483;SDS011;6814;57.786;12.080;2023-04-01T04:09:09;1.77;;;1.23;;
13483;SDS011;6814;57.786;12.080;2023-04-01T04:11:37;1.83;;;1.03;;
13483;SDS011;6814;57.786;12.080;2023-04-01T04:14:03;1.63;;;1.20;;
13483;SDS011;6814;57.786;12.080;2023-04-01T04:16:29;1.30;;;1.20;;
13483;SDS011;6814;57.786;12.080;2023-04-01T04:18:56;1.30;;;1.20;;
13483;SDS011;6814;57.786;12.080;2023-04-01T04:21:22;1.40;;;1.30;;
13483;SDS011;6814;57.786;12.080;2023-04-01T04:23:49;2.03;;;1.20;;
13483;SDS011;6814;57.786;12.080;2023-04-01T04:26:15;1.73;;;1.17;;
13483;SDS011;6814;57.786;12.080;2023-04-01T04:28:43;1.10;;;0.87;;
13483;SDS011;6814;57.786;12.080;2023-04-01T04:31:10;1.03;;;1.03;;
13483;SDS011;6814;57.786;12.080;2023-04-01T04:33:36;1.10;;;1.00;;
13483;SDS011;6814;57.786;12.080;2023-04-01T04:36:03;1.50;;;1.20;;
13483;SDS011;6814;57.786;12.080;2023-04-01T04:38:30;2.03;;;1.10;;
13483;SDS011;6814;57.786;12.080;2023-04-01T04:40:56;0.90;;;0.90;;
13483;SDS011;6814;57.786;12.080;2023-04-01T04:43:23;1.37;;;1.27;;
13483;SDS011;6814;57.786;12.080;2023-04-01T04:45:51;1.63;;;1.30;;
13483;SDS011;6814;57.786;12.080;2023-04-01T04:48:17;1.40;;;1.30;;
13483;SDS011;6814;57.786;12.080;2023-04-01T04:50:45;1.43;;;1.30;;
13483;SDS011;6814;57.786;12.080;2023-04-01T04:53:12;2.60;;;1.37;;
13483;SDS011;6814;57.786;12.080;2023-04-01T04:55:42;1.10;;;1.00;;
13483;SDS011;6814;57.786;12.080;2023-04-01T04:58:08;3.07;;;1.13;;
13483;SDS011;6814;57.786;12.080;2023-04-01T05:00:35;1.43;;;1.00;;
13483;SDS011;6814;57.786;12.080;2023-04-01T05:03:03;1.37;;;1.00;;
13483;SDS011;6814;57.786;12.080;2023-04-01T05:05:29;2.57;;;1.10;;
13483;SDS011;6814;57.786;12.080;2023-04-01T05:07:55;1.00;;;0.90;;
13483;SDS011;6814;57.786;12.080;2023-04-01T05:10:22;1.17;;;1.07;;
13483;SDS011;6814;57.786;12.080;2023-04-01T05:12:48;1.10;;;1.00;;
13483;SDS011;6814;57.786;12.080;2023-04-01T05:15:15;1.10;;;1.10;;
13483;SDS011;6814;57.786;12.080;2023-04-01T05:17:41;1.13;;;1.13;;
13483;SDS011;6814;57.786;12.080;2023-04-01T05:20:11;2.43;;;1.10;;
13483;SDS011;6814;57.786;12.080;2023-04-01T05:22:37;1.43;;;1.13;;
13483;SDS011;6814;57.786;12.080;2023-04-01T05:25:04;1.03;;;0.87;;
13483;SDS011;6814;57.786;12.080;2023-04-01T05:27:31;0.93;;;0.93;;
13483;SDS011;6814;57.786;12.080;2023-04-01T05:29:58;2.60;;;1.00;;
13483;SDS011;6814;57.786;12.080;2023-04-01T05:32:24;1.07;;;0.90;;
13483;SDS011;6814;57.786;12.080;2023-04-01T05:34:51;1.57;;;1.00;;
13483;SDS011;6814;57.786;12.080;2023-04-01T05:37:19;1.73;;;1.10;;
13483;SDS011;6814;57.786;12.080;2023-04-01T05:39:45;1.37;;;1.17;;
13483;SDS011;6814;57.786;12.080;2023-04-01T05:42:12;1.00;;;0.90;;
13483;SDS011;6814;57.786;12.080;2023-04-01T05:44:38;1.00;;;0.80;;
13483;SDS011;6814;57.786;12.080;2023-04-01T05:47:05;1.00;;;0.90;;
13483;SDS011;6814;57.786;12.080;2023-04-01T05:49:32;1.10;;;1.00;;
13483;SDS011;6814;57.786;12.080;2023-04-01T05:51:59;0.83;;;0.80;;
13483;SDS011;6814;57.786;12.080;2023-04-01T05:54:26;1.30;;;1.03;;
13483;SDS011;6814;57.786;12.080;2023-04-01T05:56:53;1.47;;;0.80;;
13483;SDS011;6814;57.786;12.080;2023-04-01T05:59:20;1.10;;;0.80;;
13483;SDS011;6814;57.786;12.080;2023-04-01T06:01:46;1.00;;;1.00;;
13483;SDS011;6814;57.786;12.080;2023-04-01T06:04:13;2.60;;;1.17;;
13483;SDS011;6814;57.786;12.080;2023-04-01T06:06:40;1.20;;;1.10;;
13483;SDS011;6814;57.786;12.080;2023-04-01T06:09:07;1.57;;;1.30;;
13483;SDS011;6814;57.786;12.080;2023-04-01T06:11:40;0.87;;;0.80;;
13483;SDS011;6814;57.786;12.080;2023-04-01T06:14:13;1.03;;;0.80;;
13483;SDS011;6814;57.786;12.080;2023-04-01T06:16:51;1.17;;;0.83;;
13483;SDS011;6814;57.786;12.080;2023-04-01T06:19:24;1.70;;;0.60;;
13483;SDS011;6814;57.786;12.080;2023-04-01T06:24:41;1.43;;;0.83;;
13483;SDS011;6814;57.786;12.080;2023-04-01T06:27:13;1.67;;;0.70;;
13483;SDS011;6814;57.786;12.080;2023-04-01T06:29:44;1.17;;;0.83;;
13483;SDS011;6814;57.786;12.080;2023-04-01T06:35:03;1.43;;;0.70;;
13483;SDS011;6814;57.786;12.080;2023-04-01T06:37:44;0.70;;;0.50;;
13483;SDS011;6814;57.786;12.080;2023-04-01T06:40:18;1.40;;;0.77;;
13483;SDS011;6814;57.786;12.080;2023-04-01T06:42:55;1.23;;;0.73;;
13483;SDS011;6814;57.786;12.080;2023-04-01T06:45:28;0.93;;;0.70;;
13483;SDS011;6814;57.786;12.080;2023-04-01T06:48:01;0.80;;;0.57;;
13483;SDS011;6814;57.786;12.080;2023-04-01T06:50:30;1.17;;;0.60;;
13483;SDS011;6814;57.786;12.080;2023-04-01T06:52:59;1.87;;;0.70;;
13483;SDS011;6814;57.786;12.080;2023-04-01T06:55:27;0.60;;;0.60;;
13483;SDS011;6814;57.786;12.080;2023-04-01T06:57:59;0.60;;;0.60;;
13483;SDS011;6814;57.786;12.080;2023-04-01T07:00:29;0.80;;;0.60;;
13483;SDS011;6814;57.786;12.080;2023-04-01T07:02:59;1.97;;;0.53;;
13483;SDS011;6814;57.786;12.080;2023-04-01T07:05:34;1.50;;;0.67;;
13483;SDS011;6814;57.786;12.080;2023-04-01T07:08:02;1.13;;;0.60;;
13483;SDS011;6814;57.786;12.080;2023-04-01T07:10:33;0.60;;;0.60;;
13483;SDS011;6814;57.786;12.080;2023-04-01T07:13:02;0.30;;;0.30;;
13483;SDS011;6814;57.786;12.080;2023-04-01T07:15:30;1.43;;;0.60;;
13483;SDS011;6814;57.786;12.080;2023-04-01T07:18:01;0.90;;;0.60;;
13483;SDS011;6814;57.786;12.080;2023-04-01T07:20:29;0.70;;;0.60;;
13483;SDS011;6814;57.786;12.080;2023-04-01T07:23:00;0.60;;;0.60;;
13483;SDS011;6814;57.786;12.080;2023-04-01T07:25:29;1.77;;;1.00;;
13483;SDS011;6814;57.786;12.080;2023-04-01T07:27:59;0.60;;;0.60;;
13483;SDS011;6814;57.786;12.080;2023-04-01T07:30:28;0.60;;;0.50;;
13483;SDS011;6814;57.786;12.080;2023-04-01T07:32:57;0.70;;;0.70;;
13483;SDS011;6814;57.786;12.080;2023-04-01T07:35:26;0.93;;;0.50;;
13483;SDS011;6814;57.786;12.080;2023-04-01T07:38:06;0.30;;;0.30;;
13483;SDS011;6814;57.786;12.080;2023-04-01T07:40:39;0.73;;;0.43;;
13483;SDS011;6814;57.786;12.080;2023-04-01T07:43:18;1.03;;;0.30;;
13483;SDS011;6814;57.786;12.080;2023-04-01T07:45:52;2.43;;;0.50;;
13483;SDS011;6814;57.786;12.080;2023-04-01T07:48:24;0.53;;;0.37;;
13483;SDS011;6814;57.786;12.080;2023-04-01T07:50:54;0.47;;;0.20;;
13483;SDS011;6814;57.786;12.080;2023-04-01T07:53:27;0.33;;;0.33;;
13483;SDS011;6814;57.786;12.080;2023-04-01T07:56:11;1.27;;;0.40;;
13483;SDS011;6814;57.786;12.080;2023-04-01T08:01:23;0.63;;;0.40;;
13483;SDS011;6814;57.786;12.080;2023-04-01T08:04:01;0.60;;;0.57;;
13483;SDS011;6814;57.786;12.080;2023-04-01T08:06:32;0.43;;;0.43;;
13483;SDS011;6814;57.786;12.080;2023-04-01T08:09:06;1.67;;;0.50;;
13483;SDS011;6814;57.786;12.080;2023-04-01T08:11:48;0.60;;;0.57;;
13483;SDS011;6814;57.786;12.080;2023-04-01T08:14:25;0.30;;;0.30;;
13483;SDS011;6814;57.786;12.080;2023-04-01T08:16:57;0.40;;;0.40;;
13483;SDS011;6814;57.786;12.080;2023-04-01T08:19:30;0.50;;;0.47;;
13483;SDS011;6814;57.786;12.080;2023-04-01T08:21:58;1.83;;;0.40;;
13483;SDS011;6814;57.786;12.080;2023-04-01T08:24:33;0.87;;;0.50;;
13483;SDS011;6814;57.786;12.080;2023-04-01T08:27:01;0.87;;;0.50;;
13483;SDS011;6814;57.786;12.080;2023-04-01T08:29:31;1.47;;;0.57;;
13483;SDS011;6814;57.786;12.080;2023-04-01T08:32:05;0.87;;;0.40;;
13483;SDS011;6814;57.786;12.080;2023-04-01T08:34:35;0.40;;;0.40;;
13483;SDS011;6814;57.786;12.080;2023-04-01T08:37:08;1.60;;;0.47;;
13483;SDS011;6814;57.786;12.080;2023-04-01T08:39:37;0.70;;;0.43;;
13483;SDS011;6814;57.786;12.080;2023-04-01T08:42:21;0.40;;;0.40;;
13483;SDS011;6814;57.786;12.080;2023-04-01T08:47:47;0.97;;;0.40;;
13483;SDS011;6814;57.786;12.080;2023-04-01T08:53:03;1.37;;;0.50;;
13483;SDS011;6814;57.786;12.080;2023-04-01T08:55:37;1.07;;;0.57;;
13483;SDS011;6814;57.786;12.080;2023-04-01T09:01:03;0.43;;;0.43;;
13483;SDS011;6814;57.786;12.080;2023-04-01T09:03:38;0.40;;;0.40;;
13483;SDS011;6814;57.786;12.080;2023-04-01T09:06:23;1.90;;;0.87;;
13483;SDS011;6814;57.786;12.080;2023-04-01T09:09:01;1.13;;;0.50;;
13483;SDS011;6814;57.786;12.080;2023-04-01T09:11:31;0.90;;;0.67;;
13483;SDS011;6814;57.786;12.080;2023-04-01T09:14:04;0.80;;;0.43;;
13483;SDS011;6814;57.786;12.080;2023-04-01T09:16:40;0.40;;;0.40;;
13483;SDS011;6814;57.786;12.080;2023-04-01T09:19:18;0.40;;;0.33;;
13483;SDS011;6814;57.786;12.080;2023-04-01T09:21:57;0.83;;;0.80;;
13483;SDS011;6814;57.786;12.080;2023-04-01T09:24:42;0.40;;;0.40;;
13483;SDS011;6814;57.786;12.080;2023-04-01T09:27:14;1.10;;;0.87;;
13483;SDS011;6814;57.786;12.080;2023-04-01T09:32:42;0.73;;;0.50;;
13483;SDS011;6814;57.786;12.080;2023-04-01T09:35:34;2.17;;;0.70;;
13483;SDS011;6814;57.786;12.080;2023-04-01T09:38:08;0.60;;;0.60;;
13483;SDS011;6814;57.786;12.080;2023-04-01T09:40:37;3.20;;;1.37;;
13483;SDS011;6814;57.786;12.080;2023-04-01T09:43:21;0.40;;;0.40;;
13483;SDS011;6814;57.786;12.080;2023-04-01T09:45:55;0.40;;;0.40;;
13483;SDS011;6814;57.786;12.080;2023-04-01T09:51:09;0.90;;;0.80;;
13483;SDS011;6814;57.786;12.080;2023-04-01T09:53:46;1.07;;;0.73;;
13483;SDS011;6814;57.786;12.080;2023-04-01T09:56:23;0.77;;;0.60;;
13483;SDS011;6814;57.786;12.080;2023-04-01T10:01:45;0.47;;;0.30;;
13483;SDS011;6814;57.786;12.080;2023-04-01T10:04:30;1.50;;;0.53;;
13483;SDS011;6814;57.786;12.080;2023-04-01T10:07:21;1.20;;;0.57;;
13483;SDS011;6814;57.786;12.080;2023-04-01T10:10:03;2.00;;;0.20;;
13483;SDS011;6814;57.786;12.080;2023-04-01T10:18:15;0.40;;;0.40;;
13483;SDS011;6814;57.786;12.080;2023-04-01T10:20:50;0.50;;;0.40;;
13483;SDS011;6814;57.786;12.080;2023-04-01T10:34:52;1.33;;;0.47;;
13483;SDS011;6814;57.786;12.080;2023-04-01T10:37:23;0.50;;;0.40;;
13483;SDS011;6814;57.786;12.080;2023-04-01T10:40:08;1.40;;;0.60;;
13483;SDS011;6814;57.786;12.080;2023-04-01T10:45:44;0.70;;;0.67;;
13483;SDS011;6814;57.786;12.080;2023-04-01T10:48:19;6.10;;;2.53;;
13483;SDS011;6814;57.786;12.080;2023-04-01T10:51:12;2.73;;;1.20;;
13483;SDS011;6814;57.786;12.080;2023-04-01T10:56:30;0.80;;;0.80;;
13483;SDS011;6814;57.786;12.080;2023-04-01T11:02:01;1.33;;;0.80;;
13483;SDS011;6814;57.786;12.080;2023-04-01T11:04:53;1.20;;;1.00;;
13483;SDS011;6814;57.786;12.080;2023-04-01T11:18:39;0.70;;;0.40;;
13483;SDS011;6814;57.786;12.080;2023-04-01T11:21:28;1.23;;;0.50;;
13483;SDS011;6814;57.786;12.080;2023-04-01T11:24:08;0.37;;;0.37;;
13483;SDS011;6814;57.786;12.080;2023-04-01T11:26:41;0.47;;;0.40;;
13483;SDS011;6814;57.786;12.080;2023-04-01T11:29:16;0.70;;;0.47;;
13483;SDS011;6814;57.786;12.080;2023-04-01T11:31:50;0.70;;;0.40;;
13483;SDS011;6814;57.786;12.080;2023-04-01T11:34:29;0.87;;;0.70;;
13483;SDS011;6814;57.786;12.080;2023-04-01T11:36:59;0.70;;;0.70;;
13483;SDS011;6814;57.786;12.080;2023-04-01T11:39:30;0.40;;;0.40;;
13483;SDS011;6814;57.786;12.080;2023-04-01T11:42:06;0.50;;;0.50;;
13483;SDS011;6814;57.786;12.080;2023-04-01T11:44:34;0.50;;;0.50;;
13483;SDS011;6814;57.786;12.080;2023-04-01T11:47:20;0.90;;;0.70;;
13483;SDS011;6814;57.786;12.080;2023-04-01T11:49:55;0.80;;;0.43;;
13483;SDS011;6814;57.786;12.080;2023-04-01T11:52:35;3.17;;;0.73;;
13483;SDS011;6814;57.786;12.080;2023-04-01T11:55:08;0.67;;;0.60;;
13483;SDS011;6814;57.786;12.080;2023-04-01T11:57:43;3.60;;;0.97;;
13483;SDS011;6814;57.786;12.080;2023-04-01T12:03:02;0.33;;;0.33;;
13483;SDS011;6814;57.786;12.080;2023-04-01T12:05:37;0.97;;;0.60;;
13483;SDS011;6814;57.786;12.080;2023-04-01T12:08:10;0.50;;;0.50;;
13483;SDS011;6814;57.786;12.080;2023-04-01T12:10:40;1.93;;;0.50;;
13483;SDS011;6814;57.786;12.080;2023-04-01T12:13:12;0.93;;;0.60;;
13483;SDS011;6814;57.786;12.080;2023-04-01T12:15:44;1.13;;;0.50;;
13483;SDS011;6814;57.786;12.080;2023-04-01T12:18:15;0.57;;;0.30;;
13483;SDS011;6814;57.786;12.080;2023-04-01T12:20:47;0.50;;;0.50;;
13483;SDS011;6814;57.786;12.080;2023-04-01T12:23:29;1.50;;;0.70;;
13483;SDS011;6814;57.786;12.080;2023-04-01T12:26:01;0.47;;;0.47;;
13483;SDS011;6814;57.786;12.080;2023-04-01T12:28:35;2.00;;;0.73;;
13483;SDS011;6814;57.786;12.080;2023-04-01T12:31:09;5.77;;;0.77;;
13483;SDS011;6814;57.786;12.080;2023-04-01T12:33:48;0.77;;;0.60;;
13483;SDS011;6814;57.786;12.080;2023-04-01T12:36:23;0.40;;;0.40;;
13483;SDS011;6814;57.786;12.080;2023-04-01T12:38:58;0.73;;;0.30;;
13483;SDS011;6814;57.786;12.080;2023-04-01T12:41:30;0.50;;;0.40;;
13483;SDS011;6814;57.786;12.080;2023-04-01T12:46:53;0.30;;;0.30;;
13483;SDS011;6814;57.786;12.080;2023-04-01T12:49:27;0.50;;;0.30;;
13483;SDS011;6814;57.786;12.080;2023-04-01T12:52:08;3.70;;;0.70;;
13483;SDS011;6814;57.786;12.080;2023-04-01T12:57:26;1.53;;;0.30;;
13483;SDS011;6814;57.786;12.080;2023-04-01T13:00:03;0.60;;;0.30;;
13483;SDS011;6814;57.786;12.080;2023-04-01T13:02:37;0.23;;;0.23;;
13483;SDS011;6814;57.786;12.080;2023-04-01T13:05:19;1.20;;;0.30;;
13483;SDS011;6814;57.786;12.080;2023-04-01T13:08:00;7.50;;;0.70;;
13483;SDS011;6814;57.786;12.080;2023-04-01T13:10:37;0.40;;;0.40;;
13483;SDS011;6814;57.786;12.080;2023-04-01T13:13:18;1.20;;;0.43;;
13483;SDS011;6814;57.786;12.080;2023-04-01T13:15:47;0.40;;;0.20;;
13483;SDS011;6814;57.786;12.080;2023-04-01T13:18:20;0.93;;;0.30;;
13483;SDS011;6814;57.786;12.080;2023-04-01T13:20:53;0.10;;;0.10;;
13483;SDS011;6814;57.786;12.080;2023-04-01T13:23:27;0.30;;;0.30;;
13483;SDS011;6814;57.786;12.080;2023-04-01T13:25:59;0.30;;;0.30;;
13483;SDS011;6814;57.786;12.080;2023-04-01T13:28:27;0.33;;;0.30;;
13483;SDS011;6814;57.786;12.080;2023-04-01T13:30:56;0.30;;;0.30;;
13483;SDS011;6814;57.786;12.080;2023-04-01T13:33:27;0.27;;;0.20;;
13483;SDS011;6814;57.786;12.080;2023-04-01T13:35:59;0.43;;;0.40;;
13483;SDS011;6814;57.786;12.080;2023-04-01T13:38:37;0.63;;;0.30;;
13483;SDS011;6814;57.786;12.080;2023-04-01T13:41:10;0.67;;;0.20;;
13483;SDS011;6814;57.786;12.080;2023-04-01T13:43:39;0.77;;;0.50;;
13483;SDS011;6814;57.786;12.080;2023-04-01T13:46:08;0.67;;;0.30;;
13483;SDS011;6814;57.786;12.080;2023-04-01T13:48:39;0.20;;;0.20;;
13483;SDS011;6814;57.786;12.080;2023-04-01T13:54:00;0.40;;;0.40;;
13483;SDS011;6814;57.786;12.080;2023-04-01T13:56:34;0.70;;;0.30;;
13483;SDS011;6814;57.786;12.080;2023-04-01T13:59:17;0.40;;;0.40;;
13483;SDS011;6814;57.786;12.080;2023-04-01T14:01:53;0.53;;;0.37;;
13483;SDS011;6814;57.786;12.080;2023-04-01T14:04:34;0.33;;;0.33;;
13483;SDS011;6814;57.786;12.080;2023-04-01T14:07:13;0.30;;;0.30;;
13483;SDS011;6814;57.786;12.080;2023-04-01T14:12:31;1.07;;;0.30;;
13483;SDS011;6814;57.786;12.080;2023-04-01T14:15:07;0.87;;;0.40;;
13483;SDS011;6814;57.786;12.080;2023-04-01T14:17:44;0.73;;;0.20;;
13483;SDS011;6814;57.786;12.080;2023-04-01T14:20:17;0.33;;;0.30;;
13483;SDS011;6814;57.786;12.080;2023-04-01T14:22:52;1.20;;;0.27;;
13483;SDS011;6814;57.786;12.080;2023-04-01T14:28:09;1.03;;;0.70;;
13483;SDS011;6814;57.786;12.080;2023-04-01T14:30:42;0.60;;;0.60;;
13483;SDS011;6814;57.786;12.080;2023-04-01T14:33:15;0.40;;;0.40;;
13483;SDS011;6814;57.786;12.080;2023-04-01T14:35:49;0.53;;;0.53;;
13483;SDS011;6814;57.786;12.080;2023-04-01T14:38:27;0.70;;;0.53;;
13483;SDS011;6814;57.786;12.080;2023-04-01T14:40:55;1.50;;;0.50;;
13483;SDS011;6814;57.786;12.080;2023-04-01T14:43:31;2.77;;;1.10;;
13483;SDS011;6814;57.786;12.080;2023-04-01T14:46:14;0.40;;;0.30;;
13483;SDS011;6814;57.786;12.080;2023-04-01T14:48:49;0.53;;;0.53;;
13483;SDS011;6814;57.786;12.080;2023-04-01T14:51:18;0.73;;;0.73;;
13483;SDS011;6814;57.786;12.080;2023-04-01T14:53:51;1.53;;;0.70;;
13483;SDS011;6814;57.786;12.080;2023-04-01T14:56:36;4.07;;;1.43;;
13483;SDS011;6814;57.786;12.080;2023-04-01T14:59:07;1.30;;;1.23;;
13483;SDS011;6814;57.786;12.080;2023-04-01T15:01:36;1.10;;;1.00;;
13483;SDS011;6814;57.786;12.080;2023-04-01T15:04:12;0.90;;;0.80;;
13483;SDS011;6814;57.786;12.080;2023-04-01T15:07:08;0.40;;;0.30;;
13483;SDS011;6814;57.786;12.080;2023-04-01T15:09:42;0.50;;;0.50;;
13483;SDS011;6814;57.786;12.080;2023-04-01T15:12:14;0.37;;;0.30;;
13483;SDS011;6814;57.786;12.080;2023-04-01T15:17:40;1.03;;;0.53;;
13483;SDS011;6814;57.786;12.080;2023-04-01T15:20:19;0.83;;;0.70;;
13483;SDS011;6814;57.786;12.080;2023-04-01T15:23:02;0.30;;;0.30;;
13483;SDS011;6814;57.786;12.080;2023-04-01T15:25:36;1.07;;;0.53;;
13483;SDS011;6814;57.786;12.080;2023-04-01T15:28:13;0.50;;;0.40;;
13483;SDS011;6814;57.786;12.080;2023-04-01T15:30:45;1.47;;;1.37;;
13483;SDS011;6814;57.786;12.080;2023-04-01T15:33:20;0.70;;;0.70;;
13483;SDS011;6814;57.786;12.080;2023-04-01T15:35:51;2.47;;;2.27;;
13483;SDS011;6814;57.786;12.080;2023-04-01T15:38:30;1.73;;;1.33;;
13483;SDS011;6814;57.786;12.080;2023-04-01T15:41:01;2.10;;;1.90;;
13483;SDS011;6814;57.786;12.080;2023-04-01T15:43:32;1.63;;;1.07;;
13483;SDS011;6814;57.786;12.080;2023-04-01T15:46:09;0.50;;;0.50;;
13483;SDS011;6814;57.786;12.080;2023-04-01T15:48:47;0.50;;;0.50;;
13483;SDS011;6814;57.786;12.080;2023-04-01T15:51:19;1.17;;;0.50;;
13483;SDS011;6814;57.786;12.080;2023-04-01T15:53:57;0.87;;;0.70;;
13483;SDS011;6814;57.786;12.080;2023-04-01T15:56:28;1.10;;;1.00;;
13483;SDS011;6814;57.786;12.080;2023-04-01T15:59:20;1.03;;;0.60;;
13483;SDS011;6814;57.786;12.080;2023-04-01T16:02:07;0.87;;;0.53;;
13483;SDS011;6814;57.786;12.080;2023-04-01T16:04:46;1.30;;;0.40;;
13483;SDS011;6814;57.786;12.080;2023-04-01T16:07:18;0.20;;;0.10;;
13483;SDS011;6814;57.786;12.080;2023-04-01T16:09:52;0.50;;;0.40;;
13483;SDS011;6814;57.786;12.080;2023-04-01T16:12:25;0.23;;;0.20;;
13483;SDS011;6814;57.786;12.080;2023-04-01T16:14:58;1.17;;;0.80;;
13483;SDS011;6814;57.786;12.080;2023-04-01T16:17:33;2.00;;;0.30;;
13483;SDS011;6814;57.786;12.080;2023-04-01T16:20:06;0.70;;;0.40;;
13483;SDS011;6814;57.786;12.080;2023-04-01T16:22:44;0.57;;;0.43;;
13483;SDS011;6814;57.786;12.080;2023-04-01T16:25:20;1.13;;;0.60;;
13483;SDS011;6814;57.786;12.080;2023-04-01T16:27:49;3.50;;;0.40;;
13483;SDS011;6814;57.786;12.080;2023-04-01T16:30:24;0.40;;;0.40;;
13483;SDS011;6814;57.786;12.080;2023-04-01T16:32:53;0.60;;;0.43;;
13483;SDS011;6814;57.786;12.080;2023-04-01T16:35:25;0.40;;;0.40;;